Sycamore, Illinois
Current Conditions -  °F | °C
As of 9:55 AM on Friday 28 Nov 2014 (Local Time) from KDKB Reporting Station
Clear Clear  
Wind Chill:   Ceiling: Unl
Heat Index: 20°   Visibility: 10mi
Dew Point: 13°   Wind: 17mph
Humidity: 77%   Direction: 140°SE
Pressure: 30.16"   Gusts: NA
Location:  41.99°N, 88.68°W
Report Text: KDKB 281555Z AUTO 14015KT 10SM CLR M07/M10 A3016 RMK AO2 T10691103
Loading
Personal Weather Stations






























Interactive Weather Map New forecast layout! Learn more

10-Day Weather Forecast

Advertisements
Track Severe Weather on mobile